createdAt,value
2023-08-11T00:00:22.909Z,12.29
2023-08-11T00:01:26.373Z,12.29
2023-08-11T00:02:31.216Z,12.27
2023-08-11T00:03:34.410Z,12.34
2023-08-11T00:04:37.725Z,12.36
2023-08-11T00:05:41.138Z,12.34
2023-08-11T00:06:44.277Z,12.36
2023-08-11T00:07:55.917Z,12.34
2023-08-11T00:08:59.001Z,12.34
2023-08-11T00:10:01.977Z,12.32
2023-08-11T00:11:05.390Z,12.28
2023-08-11T00:12:08.575Z,12.27
2023-08-11T00:13:14.668Z,12.25
2023-08-11T00:14:18.259Z,12.23
2023-08-11T00:15:21.632Z,12.22
2023-08-11T00:16:26.033Z,12.21
2023-08-11T00:17:29.084Z,12.22
2023-08-11T00:18:32.800Z,12.19
2023-08-11T00:19:36.201Z,12.23
2023-08-11T00:20:39.353Z,12.21
2023-08-11T00:21:42.923Z,12.25
2023-08-11T00:22:45.901Z,12.27
2023-08-11T00:23:49.774Z,12.26
2023-08-11T00:24:52.719Z,12.23
2023-08-11T00:25:55.813Z,12.19
2023-08-11T00:26:59.122Z,12.15
2023-08-11T00:28:02.195Z,12.12
2023-08-11T00:29:06.145Z,12.16
2023-08-11T00:30:10.730Z,12.10
2023-08-11T00:31:15.106Z,12.14
2023-08-11T00:32:18.216Z,12.08
2023-08-11T00:33:21.277Z,12.05
2023-08-11T00:34:24.331Z,12.11
2023-08-11T00:35:27.252Z,12.08
2023-08-11T00:36:30.357Z,12.03
2023-08-11T00:37:34.985Z,11.98
2023-08-11T00:38:42.063Z,11.97
2023-08-11T00:39:45.107Z,11.99
2023-08-11T00:40:48.103Z,12.08
2023-08-11T00:41:51.586Z,12.04
2023-08-11T00:42:54.472Z,11.99
2023-08-11T00:43:57.890Z,11.95
2023-08-11T00:45:01.053Z,11.92
2023-08-11T00:46:13.214Z,11.92
2023-08-11T00:47:16.728Z,11.88
2023-08-11T00:48:19.893Z,11.85
2023-08-11T00:49:23.135Z,11.89
2023-08-11T00:50:26.444Z,11.85
2023-08-11T00:51:30.235Z,11.83
2023-08-11T00:52:33.328Z,11.82
2023-08-11T00:53:38.005Z,11.86
2023-08-11T00:54:42.937Z,11.81
2023-08-11T00:55:47.589Z,11.78
2023-08-11T00:56:50.832Z,11.82
2023-08-11T00:57:54.127Z,11.80
2023-08-11T00:58:57.483Z,11.76
2023-08-11T01:00:02.003Z,11.76
2023-08-11T01:01:05.976Z,11.73
2023-08-11T01:02:11.828Z,11.69
2023-08-11T01:03:14.946Z,11.67
2023-08-11T01:04:18.464Z,11.66
2023-08-11T01:05:21.711Z,11.66
2023-08-11T01:06:24.770Z,11.64
2023-08-11T01:07:40.052Z,11.69
2023-08-11T01:09:01.952Z,11.76
2023-08-11T01:10:21.752Z,11.78
2023-08-11T01:11:46.976Z,11.76
2023-08-11T01:13:17.342Z,11.75
2023-08-11T01:14:26.145Z,11.77
2023-08-11T01:15:35.897Z,11.77
2023-08-11T01:16:39.355Z,11.84
2023-08-11T01:17:43.756Z,11.79
2023-08-11T01:18:47.907Z,11.78
2023-08-11T01:19:50.978Z,11.77
2023-08-11T01:20:56.661Z,11.82
2023-08-11T01:22:02.440Z,11.78
2023-08-11T01:23:07.710Z,11.81
2023-08-11T01:24:10.802Z,11.80
2023-08-11T01:25:14.266Z,11.86
2023-08-11T01:26:17.546Z,11.85
2023-08-11T01:27:20.998Z,11.83
2023-08-11T01:28:24.059Z,11.83
2023-08-11T01:29:27.714Z,11.78
2023-08-11T01:30:31.603Z,11.72
2023-08-11T01:31:34.818Z,11.69
2023-08-11T01:32:38.048Z,11.66
2023-08-11T01:33:41.077Z,11.71
2023-08-11T01:34:43.987Z,11.75
2023-08-11T01:35:46.960Z,11.68
2023-08-11T01:36:51.984Z,11.69
2023-08-11T01:37:54.969Z,11.70
2023-08-11T01:38:59.325Z,11.73
2023-08-11T01:40:02.620Z,11.76
2023-08-11T01:41:06.635Z,11.78
2023-08-11T01:42:09.605Z,11.82
2023-08-11T01:43:15.515Z,11.77
2023-08-11T01:44:19.076Z,11.78
2023-08-11T01:45:23.346Z,11.79
2023-08-11T01:46:28.762Z,11.78
2023-08-11T01:47:32.916Z,11.80
2023-08-11T01:48:38.119Z,11.85
2023-08-11T01:49:41.407Z,11.84
2023-08-11T01:50:45.350Z,11.87
2023-08-11T01:51:48.366Z,11.87
2023-08-11T01:52:53.684Z,11.85
2023-08-11T01:53:56.757Z,11.85
2023-08-11T01:55:00.064Z,11.84
2023-08-11T01:56:03.922Z,11.86
2023-08-11T01:57:07.470Z,11.84
2023-08-11T01:58:11.592Z,11.86
2023-08-11T01:59:19.727Z,11.88
2023-08-11T02:00:23.292Z,11.86
2023-08-11T02:01:26.349Z,11.85
2023-08-11T02:02:29.497Z,11.83
2023-08-11T02:03:32.838Z,11.85
2023-08-11T02:04:35.979Z,11.86
2023-08-11T02:05:39.023Z,11.88
2023-08-11T02:06:42.161Z,11.87
2023-08-11T02:07:49.123Z,11.91
2023-08-11T02:08:51.981Z,11.88
2023-08-11T02:09:55.941Z,11.93
2023-08-11T02:10:59.206Z,11.93
2023-08-11T02:12:02.153Z,11.95
2023-08-11T02:13:05.152Z,11.94
2023-08-11T02:14:08.242Z,11.94
2023-08-11T02:15:14.376Z,11.94
2023-08-11T02:16:17.668Z,11.95
2023-08-11T02:17:21.324Z,11.96
2023-08-11T02:18:24.410Z,11.94
2023-08-11T02:19:27.345Z,11.97
2023-08-11T02:20:30.910Z,12.01
2023-08-11T02:21:34.971Z,12.01
2023-08-11T02:22:38.118Z,12.00
2023-08-11T02:23:41.064Z,11.97
2023-08-11T02:24:44.088Z,12.01
2023-08-11T02:25:47.164Z,12.02
2023-08-11T02:26:50.272Z,12.01
2023-08-11T02:27:53.987Z,12.01
2023-08-11T02:28:56.999Z,12.00
2023-08-11T02:29:59.927Z,12.03
2023-08-11T02:31:04.099Z,12.04
2023-08-11T02:32:07.214Z,12.03
2023-08-11T02:33:10.597Z,12.07
2023-08-11T02:34:13.770Z,12.08
2023-08-11T02:35:18.979Z,12.08
2023-08-11T02:36:22.154Z,12.09
2023-08-11T02:37:25.306Z,12.11
2023-08-11T02:38:28.565Z,12.12
2023-08-11T02:39:31.591Z,12.12
2023-08-11T02:40:36.517Z,12.12
2023-08-11T02:41:39.492Z,12.14
2023-08-11T02:42:49.895Z,12.12
2023-08-11T02:43:53.431Z,12.13
2023-08-11T02:44:56.684Z,12.12
2023-08-11T02:45:59.782Z,12.12
2023-08-11T02:47:02.795Z,12.13
2023-08-11T02:48:06.128Z,12.09
2023-08-11T02:49:09.267Z,12.08
2023-08-11T02:50:13.044Z,12.09
2023-08-11T02:51:16.052Z,12.09
2023-08-11T02:52:19.494Z,12.10
2023-08-11T02:53:22.445Z,12.09
2023-08-11T02:54:25.543Z,12.06
2023-08-11T02:55:28.636Z,12.08
2023-08-11T02:56:31.925Z,12.10
2023-08-11T02:57:35.721Z,12.08
2023-08-11T02:58:38.572Z,12.03
2023-08-11T02:59:41.544Z,12.01
2023-08-11T03:00:44.578Z,11.98
2023-08-11T03:01:47.651Z,11.97
2023-08-11T03:02:50.603Z,11.97
2023-08-11T03:03:54.170Z,11.98
2023-08-11T03:04:57.153Z,11.94
2023-08-11T03:06:00.310Z,11.90
2023-08-11T03:07:07.082Z,11.84
2023-08-11T03:08:10.111Z,11.81
2023-08-11T03:09:13.744Z,11.78
2023-08-11T03:10:17.217Z,11.76
2023-08-11T03:11:20.290Z,11.76
2023-08-11T03:12:23.272Z,11.75
2023-08-11T03:13:26.407Z,11.72
2023-08-11T03:14:29.311Z,11.67
2023-08-11T03:15:32.447Z,11.64
2023-08-11T03:16:35.630Z,11.61
2023-08-11T03:17:38.805Z,11.59
2023-08-11T03:18:42.010Z,11.60
2023-08-11T03:19:44.926Z,11.62
2023-08-11T03:20:47.931Z,11.60
2023-08-11T03:21:50.874Z,11.59
2023-08-11T03:22:53.864Z,11.56
2023-08-11T03:23:56.737Z,11.57
2023-08-11T03:24:59.673Z,11.54
2023-08-11T03:26:02.694Z,11.54
2023-08-11T03:27:05.661Z,11.51
2023-08-11T03:28:08.990Z,11.49
2023-08-11T03:29:12.166Z,11.46
2023-08-11T03:30:15.284Z,11.44
2023-08-11T03:31:18.440Z,11.42
2023-08-11T03:32:21.424Z,11.42
2023-08-11T03:33:24.889Z,11.41
2023-08-11T03:34:27.957Z,11.37
2023-08-11T03:35:33.664Z,11.33
2023-08-11T03:36:36.713Z,11.31
2023-08-11T03:37:39.940Z,11.28
2023-08-11T03:38:43.024Z,11.26
2023-08-11T03:39:46.003Z,11.24
2023-08-11T03:40:49.174Z,11.24
2023-08-11T03:41:53.540Z,11.24
2023-08-11T03:42:56.574Z,11.25
2023-08-11T03:43:59.520Z,11.25
2023-08-11T03:45:02.605Z,11.26
2023-08-11T03:46:05.625Z,11.26
2023-08-11T03:47:08.712Z,11.25
2023-08-11T03:48:12.039Z,11.25
2023-08-11T03:49:15.009Z,11.26
2023-08-11T03:50:17.928Z,11.27
2023-08-11T03:51:20.897Z,11.29
2023-08-11T03:52:23.829Z,11.28
2023-08-11T03:53:27.064Z,11.29
2023-08-11T03:54:43.404Z,11.30
2023-08-11T03:55:48.384Z,11.27
2023-08-11T03:56:51.377Z,11.25
2023-08-11T03:57:54.429Z,11.21
2023-08-11T03:58:57.694Z,11.17
2023-08-11T04:00:00.631Z,11.18
2023-08-11T04:01:03.653Z,11.18
2023-08-11T04:02:06.911Z,11.18
2023-08-11T04:03:10.896Z,11.17
2023-08-11T04:04:14.076Z,11.22
2023-08-11T04:05:18.346Z,11.23
2023-08-11T04:06:21.480Z,11.21
2023-08-11T04:07:24.435Z,11.23
2023-08-11T04:08:28.589Z,11.26
2023-08-11T04:09:31.554Z,11.28
2023-08-11T04:10:36.544Z,11.29
2023-08-11T04:11:39.509Z,11.33
2023-08-11T04:12:42.543Z,11.37
2023-08-11T04:13:45.496Z,11.37
2023-08-11T04:14:48.659Z,11.41
2023-08-11T04:15:52.863Z,11.38
2023-08-11T04:16:56.129Z,11.41
2023-08-11T04:17:59.414Z,11.43
2023-08-11T04:19:02.786Z,11.45
2023-08-11T04:20:14.609Z,11.46
2023-08-11T04:21:18.504Z,11.44
2023-08-11T04:22:32.908Z,11.47
2023-08-11T04:23:41.789Z,11.46
2023-08-11T04:24:44.659Z,11.47
2023-08-11T04:25:47.557Z,11.48
2023-08-11T04:26:50.433Z,11.49
2023-08-11T04:27:53.346Z,11.51
2023-08-11T04:28:56.388Z,11.50
2023-08-11T04:29:59.399Z,11.50
2023-08-11T04:31:02.446Z,11.50
2023-08-11T04:32:06.344Z,11.49
2023-08-11T04:33:09.860Z,11.49
2023-08-11T04:34:12.994Z,11.48
2023-08-11T04:35:15.996Z,11.51
2023-08-11T04:36:18.949Z,11.54
2023-08-11T04:37:21.921Z,11.58
2023-08-11T04:38:25.122Z,11.61
2023-08-11T04:39:28.034Z,11.63
2023-08-11T04:40:31.430Z,11.64
2023-08-11T04:41:34.232Z,11.66
2023-08-11T04:42:37.372Z,11.70
2023-08-11T04:43:40.277Z,11.73
2023-08-11T04:44:43.265Z,11.76
2023-08-11T04:45:46.548Z,11.81
2023-08-11T04:46:49.660Z,11.85
2023-08-11T04:47:52.745Z,11.85
2023-08-11T04:48:55.723Z,11.89
2023-08-11T04:49:58.783Z,11.89
2023-08-11T04:51:01.785Z,11.87
2023-08-11T04:52:05.175Z,11.91
2023-08-11T04:53:08.511Z,11.91
2023-08-11T04:54:13.040Z,11.94
2023-08-11T04:55:16.065Z,11.97
2023-08-11T04:56:18.985Z,12.00
2023-08-11T04:57:22.010Z,12.02
2023-08-11T04:58:25.055Z,12.05
2023-08-11T04:59:28.052Z,12.07
2023-08-11T05:00:31.020Z,12.09
2023-08-11T05:01:34.122Z,12.14
2023-08-11T05:02:37.212Z,12.17
2023-08-11T05:03:40.398Z,12.19
2023-08-11T05:04:43.616Z,12.19
2023-08-11T05:05:46.785Z,12.23
2023-08-11T05:06:49.718Z,12.25
2023-08-11T05:07:52.832Z,12.29
2023-08-11T05:08:55.996Z,12.36
2023-08-11T05:09:59.421Z,12.40
2023-08-11T05:11:02.479Z,12.44
2023-08-11T05:12:06.251Z,12.47
2023-08-11T05:13:09.443Z,12.57
2023-08-11T05:14:15.754Z,12.62
2023-08-11T05:15:19.405Z,12.73
2023-08-11T05:16:22.579Z,12.76
2023-08-11T05:17:25.749Z,12.79
2023-08-11T05:18:37.966Z,12.89
2023-08-11T05:19:46.650Z,12.94
2023-08-11T05:20:49.561Z,13.05
2023-08-11T05:21:53.085Z,13.08
2023-08-11T05:22:56.142Z,13.15
2023-08-11T05:23:59.106Z,13.28
2023-08-11T05:25:06.107Z,13.33
2023-08-11T05:26:09.136Z,13.41
2023-08-11T05:27:12.163Z,13.49
2023-08-11T05:28:15.315Z,13.60
2023-08-11T05:29:18.337Z,13.64
2023-08-11T05:30:26.003Z,13.69
2023-08-11T05:31:29.154Z,13.75
2023-08-11T05:32:33.102Z,13.91
2023-08-11T05:33:36.477Z,14.01
2023-08-11T05:34:40.305Z,14.05
2023-08-11T05:35:43.239Z,14.19
2023-08-11T05:36:46.192Z,14.28
2023-08-11T05:37:48.988Z,14.33
2023-08-11T05:38:52.219Z,14.37
2023-08-11T05:39:55.346Z,14.41
2023-08-11T05:40:58.506Z,14.47
2023-08-11T05:42:02.184Z,14.55
2023-08-11T05:43:05.040Z,14.60
2023-08-11T05:44:08.194Z,14.66
2023-08-11T05:45:11.757Z,14.74
2023-08-11T05:46:15.479Z,14.78
2023-08-11T05:47:18.440Z,14.84
2023-08-11T05:48:21.560Z,14.91
2023-08-11T05:49:24.523Z,14.95
2023-08-11T05:50:27.598Z,15.02
2023-08-11T05:51:30.681Z,15.10
2023-08-11T05:52:33.627Z,15.17
2023-08-11T05:53:36.635Z,15.18
2023-08-11T05:54:39.579Z,15.21
2023-08-11T05:55:42.751Z,15.24
2023-08-11T05:56:45.673Z,15.27
2023-08-11T05:57:48.784Z,15.28
2023-08-11T05:58:51.827Z,15.34
2023-08-11T05:59:54.833Z,15.39
2023-08-11T06:00:58.076Z,15.41
2023-08-11T06:02:01.139Z,15.44
2023-08-11T06:03:04.330Z,15.47
2023-08-11T06:04:07.549Z,15.50
2023-08-11T06:05:10.821Z,15.55
2023-08-11T06:06:14.064Z,15.60
2023-08-11T06:07:17.190Z,15.62
2023-08-11T06:08:20.166Z,15.64
2023-08-11T06:09:24.322Z,15.66
2023-08-11T06:10:28.017Z,15.70
2023-08-11T06:11:30.899Z,15.76
2023-08-11T06:12:34.092Z,15.82
2023-08-11T06:13:37.353Z,15.91
2023-08-11T06:14:40.342Z,15.92
2023-08-11T06:15:43.326Z,15.94
2023-08-11T06:16:46.498Z,16.00
2023-08-11T06:17:51.563Z,16.05
2023-08-11T06:18:54.569Z,16.08
2023-08-11T06:19:58.955Z,16.12
2023-08-11T06:21:05.277Z,16.14
2023-08-11T06:22:08.832Z,16.16
2023-08-11T06:23:12.050Z,16.19
2023-08-11T06:24:15.047Z,16.21
2023-08-11T06:25:18.345Z,16.27
2023-08-11T06:26:21.348Z,16.30
2023-08-11T06:27:24.469Z,16.32
2023-08-11T06:28:27.456Z,16.39
2023-08-11T06:29:30.526Z,16.44
2023-08-11T06:30:33.525Z,16.47
2023-08-11T06:31:36.520Z,16.52
2023-08-11T06:32:39.594Z,16.57
2023-08-11T06:33:42.723Z,16.60
2023-08-11T06:34:45.772Z,16.64
2023-08-11T06:35:48.992Z,16.68
2023-08-11T06:36:52.015Z,16.75
2023-08-11T06:37:55.669Z,16.80
2023-08-11T06:38:58.746Z,16.85
2023-08-11T06:40:01.851Z,16.91
2023-08-11T06:41:05.064Z,16.99
2023-08-11T06:42:08.223Z,17.04
2023-08-11T06:43:11.253Z,17.04
2023-08-11T06:44:14.211Z,17.05
2023-08-11T06:45:17.388Z,17.09
2023-08-11T06:46:20.599Z,17.15
2023-08-11T06:47:25.143Z,17.22
2023-08-11T06:48:29.197Z,17.31
2023-08-11T06:49:32.150Z,17.41
2023-08-11T06:50:35.354Z,17.52
2023-08-11T06:51:38.418Z,17.54
2023-08-11T06:52:41.442Z,17.55
2023-08-11T06:53:44.377Z,17.63
2023-08-11T06:54:47.355Z,17.75
2023-08-11T06:55:50.287Z,17.74
2023-08-11T06:56:53.295Z,17.81
2023-08-11T06:57:56.300Z,17.85
2023-08-11T06:58:59.741Z,17.84
2023-08-11T07:00:02.695Z,17.88
2023-08-11T07:01:05.710Z,18.07
2023-08-11T07:02:08.767Z,18.09
2023-08-11T07:03:11.797Z,18.11
2023-08-11T07:04:14.873Z,18.12
2023-08-11T07:05:18.090Z,18.14
2023-08-11T07:06:21.013Z,18.23
2023-08-11T07:07:24.117Z,18.31
2023-08-11T07:08:27.169Z,18.33
2023-08-11T07:09:30.313Z,18.42
2023-08-11T07:10:34.198Z,18.47
2023-08-11T07:11:37.400Z,18.48
2023-08-11T07:12:40.508Z,18.50
2023-08-11T07:13:43.789Z,18.54
2023-08-11T07:14:47.237Z,18.55
2023-08-11T07:15:50.120Z,18.58
2023-08-11T07:16:53.133Z,18.59
2023-08-11T07:17:56.257Z,18.65
2023-08-11T07:18:59.343Z,18.66
2023-08-11T07:20:02.382Z,18.72
2023-08-11T07:21:05.467Z,18.76
2023-08-11T07:22:08.721Z,18.95
2023-08-11T07:23:12.442Z,19.14
2023-08-11T07:24:15.464Z,19.04
2023-08-11T07:25:18.564Z,19.04
2023-08-11T07:26:21.700Z,19.09
2023-08-11T07:27:24.776Z,19.17
2023-08-11T07:28:27.866Z,19.14
2023-08-11T07:29:30.764Z,19.17
2023-08-11T07:30:33.733Z,19.25
2023-08-11T07:31:36.760Z,19.28
2023-08-11T07:32:39.913Z,19.26
2023-08-11T07:33:44.035Z,19.39
2023-08-11T07:34:47.093Z,19.41
2023-08-11T07:35:50.116Z,19.44
2023-08-11T07:36:53.419Z,19.45
2023-08-11T07:37:56.779Z,19.49
2023-08-11T07:39:12.857Z,19.62
2023-08-11T07:40:22.949Z,19.70
2023-08-11T07:41:25.843Z,19.68
2023-08-11T07:42:28.819Z,19.69
2023-08-11T07:43:31.858Z,19.71
2023-08-11T07:44:35.424Z,19.75
2023-08-11T07:45:38.399Z,19.94
2023-08-11T07:46:41.726Z,20.00
2023-08-11T07:47:45.017Z,19.96
2023-08-11T07:48:49.290Z,20.03
2023-08-11T07:49:52.360Z,20.09
2023-08-11T07:50:55.430Z,20.08
2023-08-11T07:52:00.996Z,20.13
2023-08-11T07:53:04.853Z,20.16
2023-08-11T07:54:08.217Z,20.18
2023-08-11T07:55:11.794Z,20.24
2023-08-11T07:56:15.549Z,20.29
2023-08-11T07:57:18.790Z,20.35
2023-08-11T07:58:21.959Z,20.40
2023-08-11T07:59:24.898Z,20.43
2023-08-11T08:00:27.969Z,20.47
2023-08-11T08:01:31.207Z,20.61
2023-08-11T08:02:34.664Z,20.70
2023-08-11T08:03:40.138Z,20.73
2023-08-11T08:04:44.033Z,20.76
2023-08-11T08:05:47.063Z,20.80
2023-08-11T08:06:50.302Z,20.80
2023-08-11T08:07:53.223Z,20.83
2023-08-11T08:08:56.098Z,20.89
2023-08-11T08:09:59.093Z,21.03
2023-08-11T08:11:03.169Z,21.03
2023-08-11T08:12:06.763Z,21.06
2023-08-11T08:13:09.805Z,21.14
2023-08-11T08:14:13.449Z,21.19
2023-08-11T08:15:18.472Z,21.23
2023-08-11T08:16:21.978Z,21.31
2023-08-11T08:17:25.159Z,21.37
2023-08-11T08:18:28.343Z,21.45
2023-08-11T08:19:31.349Z,21.59
2023-08-11T08:20:34.314Z,21.68
2023-08-11T08:21:37.371Z,21.60
2023-08-11T08:22:40.867Z,21.54
2023-08-11T08:23:43.795Z,21.55
2023-08-11T08:24:47.056Z,21.57
2023-08-11T08:25:50.059Z,21.70
2023-08-11T08:26:53.129Z,21.73
2023-08-11T08:28:06.310Z,21.75
2023-08-11T08:29:10.930Z,21.77
2023-08-11T08:30:14.263Z,21.84
2023-08-11T08:31:17.518Z,21.79
2023-08-11T08:32:23.356Z,21.84
2023-08-11T08:33:26.441Z,21.86
2023-08-11T08:34:29.488Z,21.94
2023-08-11T08:35:32.562Z,21.98
2023-08-11T08:36:35.623Z,22.06
2023-08-11T08:37:39.146Z,22.11
2023-08-11T08:38:42.170Z,22.17
2023-08-11T08:39:45.916Z,22.21
2023-08-11T08:40:49.696Z,22.33
2023-08-11T08:41:53.213Z,22.40
2023-08-11T08:42:56.369Z,22.49
2023-08-11T08:44:02.225Z,22.55
2023-08-11T08:45:06.502Z,22.61
2023-08-11T08:46:10.827Z,22.73
2023-08-11T08:47:14.480Z,22.77
2023-08-11T08:48:27.080Z,22.82
2023-08-11T08:49:30.323Z,22.82
2023-08-11T08:50:34.000Z,22.87
2023-08-11T08:51:40.677Z,22.94
2023-08-11T08:52:44.283Z,22.92
2023-08-11T08:53:47.657Z,22.89
2023-08-11T08:54:50.689Z,22.87
2023-08-11T08:55:53.981Z,22.90
2023-08-11T08:56:59.253Z,23.01
2023-08-11T08:58:02.384Z,23.09
2023-08-11T08:59:06.719Z,23.15
2023-08-11T09:00:10.192Z,23.18
2023-08-11T09:01:14.716Z,23.24
2023-08-11T09:02:29.511Z,23.27
2023-08-11T09:03:33.516Z,23.35
2023-08-11T09:04:37.295Z,23.38
2023-08-11T09:05:40.432Z,23.40
2023-08-11T09:06:44.412Z,23.43
2023-08-11T09:07:47.548Z,23.36
2023-08-11T09:08:50.610Z,23.28
2023-08-11T09:09:53.573Z,23.26
2023-08-11T09:10:56.559Z,23.32
2023-08-11T09:12:02.399Z,23.47
2023-08-11T09:13:05.657Z,23.49
2023-08-11T09:14:10.143Z,23.48
2023-08-11T09:15:13.785Z,23.51
2023-08-11T09:16:17.065Z,23.49
2023-08-11T09:17:20.325Z,23.49
2023-08-11T09:18:24.157Z,23.52
2023-08-11T09:19:27.538Z,23.52
2023-08-11T09:20:30.740Z,23.52
2023-08-11T09:21:33.821Z,23.53
2023-08-11T09:22:39.796Z,23.60
2023-08-11T09:23:44.611Z,23.65
2023-08-11T09:24:47.946Z,23.79
2023-08-11T09:25:54.932Z,23.86
2023-08-11T09:26:59.819Z,23.97
2023-08-11T09:28:04.066Z,24.01
2023-08-11T09:29:07.167Z,24.07
2023-08-11T09:30:11.558Z,24.15
2023-08-11T09:31:14.716Z,24.19
2023-08-11T09:32:18.094Z,24.03
2023-08-11T09:33:24.086Z,24.00
2023-08-11T09:34:27.433Z,24.14
2023-08-11T09:35:30.855Z,24.16
2023-08-11T09:36:34.268Z,24.10
2023-08-11T09:37:38.324Z,24.14
2023-08-11T09:38:43.115Z,24.18
2023-08-11T09:39:46.292Z,24.19
2023-08-11T09:40:50.243Z,24.11
2023-08-11T09:41:53.199Z,24.34
2023-08-11T09:42:57.484Z,24.36
2023-08-11T09:44:00.759Z,24.31
2023-08-11T09:45:04.095Z,24.33
2023-08-11T09:46:07.310Z,24.43
2023-08-11T09:47:17.557Z,24.49
2023-08-11T09:48:25.624Z,24.54
2023-08-11T09:49:28.635Z,24.68
2023-08-11T09:50:36.356Z,24.75
2023-08-11T09:51:41.362Z,24.80
2023-08-11T09:52:45.044Z,24.96
2023-08-11T09:53:48.623Z,24.99
2023-08-11T09:54:55.029Z,25.08
2023-08-11T09:55:59.569Z,25.11
2023-08-11T09:57:03.162Z,24.96
2023-08-11T09:58:10.144Z,24.84
2023-08-11T09:59:16.148Z,24.84
2023-08-11T10:00:20.990Z,24.91
2023-08-11T10:01:25.433Z,25.07
2023-08-11T10:02:33.343Z,25.11
2023-08-11T10:03:49.688Z,25.17
2023-08-11T10:05:05.568Z,25.19
2023-08-11T10:06:11.691Z,25.12
2023-08-11T10:07:18.741Z,25.12
2023-08-11T10:08:25.571Z,25.14
2023-08-11T10:09:33.601Z,25.24
2023-08-11T10:10:38.832Z,25.22
2023-08-11T10:11:44.987Z,25.14
2023-08-11T10:13:04.509Z,24.94
2023-08-11T10:14:07.986Z,24.71
2023-08-11T10:15:13.135Z,24.51
2023-08-11T10:16:16.955Z,24.43
2023-08-11T10:17:20.673Z,24.35
2023-08-11T10:18:24.978Z,24.37
2023-08-11T10:19:28.326Z,24.39
2023-08-11T10:20:31.741Z,24.36
2023-08-11T10:21:35.889Z,24.34
2023-08-11T10:22:39.409Z,24.17
2023-08-11T10:23:42.766Z,24.09
2023-08-11T10:24:48.258Z,24.15
2023-08-11T10:25:52.555Z,24.28
2023-08-11T10:26:56.029Z,24.37
2023-08-11T10:27:59.898Z,24.38
2023-08-11T10:29:03.318Z,24.38
2023-08-11T10:30:09.362Z,24.20
2023-08-11T10:31:12.640Z,24.06
2023-08-11T10:32:16.348Z,23.94
2023-08-11T10:33:20.804Z,23.83
2023-08-11T10:34:25.251Z,23.60
2023-08-11T10:35:49.001Z,23.47
2023-08-11T10:36:55.269Z,23.29
2023-08-11T10:37:59.191Z,23.16
2023-08-11T10:39:08.072Z,23.12
2023-08-11T10:40:12.100Z,23.03
2023-08-11T10:41:20.113Z,22.90
2023-08-11T10:42:23.212Z,22.92
2023-08-11T10:43:36.707Z,23.11
2023-08-11T10:44:44.836Z,23.40
2023-08-11T10:45:47.966Z,23.72
2023-08-11T10:46:53.101Z,23.96
2023-08-11T10:47:56.998Z,24.20
2023-08-11T10:49:06.266Z,24.33
2023-08-11T10:50:10.387Z,24.53
2023-08-11T10:51:33.858Z,24.70
2023-08-11T10:52:37.241Z,24.64
2023-08-11T10:53:41.605Z,24.50
2023-08-11T10:54:52.568Z,24.31
2023-08-11T10:56:03.132Z,24.12
2023-08-11T10:57:06.315Z,23.97
2023-08-11T10:58:17.946Z,23.75
2023-08-11T10:59:25.804Z,23.55
2023-08-11T11:00:28.711Z,23.29
2023-08-11T11:01:31.708Z,23.22
2023-08-11T11:02:36.704Z,23.13
2023-08-11T11:03:43.002Z,23.24
2023-08-11T11:04:46.340Z,23.39
2023-08-11T11:05:49.358Z,23.61
2023-08-11T11:06:52.575Z,23.79
2023-08-11T11:07:55.706Z,24.03
2023-08-11T11:08:58.587Z,24.26
2023-08-11T11:10:01.732Z,24.44
2023-08-11T11:11:04.773Z,24.56
2023-08-11T11:12:08.308Z,24.72
2023-08-11T11:13:11.648Z,24.83
2023-08-11T11:14:14.914Z,24.98
2023-08-11T11:15:18.236Z,25.24
2023-08-11T11:16:22.367Z,25.35
2023-08-11T11:17:25.449Z,25.48
2023-08-11T11:18:28.972Z,25.62
2023-08-11T11:19:32.580Z,25.64
2023-08-11T11:20:35.686Z,25.61
2023-08-11T11:21:41.960Z,25.72
2023-08-11T11:22:50.121Z,25.67
2023-08-11T11:23:53.229Z,25.53
2023-08-11T11:25:04.223Z,25.51
2023-08-11T11:26:07.105Z,25.57
2023-08-11T11:27:10.111Z,25.63
2023-08-11T11:28:13.974Z,25.73
2023-08-11T11:29:17.882Z,25.78
2023-08-11T11:30:21.479Z,25.86
2023-08-11T11:31:27.368Z,26.03
2023-08-11T11:32:30.362Z,26.08
2023-08-11T11:33:33.519Z,26.05
2023-08-11T11:34:38.954Z,26.06
2023-08-11T11:35:42.362Z,25.99
2023-08-11T11:36:45.525Z,25.97
2023-08-11T11:37:48.713Z,25.95
2023-08-11T11:38:53.381Z,26.05
2023-08-11T11:39:57.439Z,26.11
2023-08-11T11:41:00.700Z,26.23
2023-08-11T11:42:08.400Z,26.29
2023-08-11T11:43:12.052Z,26.14
2023-08-11T11:44:16.112Z,25.95
2023-08-11T11:45:19.490Z,25.85
2023-08-11T11:46:25.433Z,25.86
2023-08-11T11:47:29.285Z,25.98
2023-08-11T11:48:32.273Z,26.06
2023-08-11T11:49:35.555Z,26.02
2023-08-11T11:50:38.821Z,25.93
2023-08-11T11:51:42.979Z,25.84
2023-08-11T11:52:48.846Z,25.74
2023-08-11T11:53:53.428Z,25.64
2023-08-11T11:54:57.016Z,25.62
2023-08-11T11:56:00.182Z,25.75
2023-08-11T11:57:09.081Z,25.89
2023-08-11T11:58:19.349Z,26.04
2023-08-11T11:59:23.010Z,26.16
2023-08-11T12:00:26.935Z,26.30
2023-08-11T12:01:30.685Z,26.46
2023-08-11T12:02:33.976Z,26.47
2023-08-11T12:03:37.608Z,26.47
2023-08-11T12:04:44.035Z,26.36
2023-08-11T12:05:47.157Z,26.30
2023-08-11T12:06:50.307Z,26.20
2023-08-11T12:07:53.349Z,25.95
2023-08-11T12:09:05.295Z,25.79
2023-08-11T12:10:08.724Z,25.63
2023-08-11T12:11:14.214Z,25.65
2023-08-11T12:12:17.209Z,25.62
2023-08-11T12:13:20.239Z,25.56
2023-08-11T12:14:27.174Z,25.57
2023-08-11T12:15:32.661Z,25.56
2023-08-11T12:16:36.835Z,25.57
2023-08-11T12:17:39.730Z,25.69
2023-08-11T12:18:43.335Z,25.83
2023-08-11T12:19:47.521Z,25.84
2023-08-11T12:20:51.781Z,25.86
2023-08-11T12:21:54.785Z,25.81
2023-08-11T12:22:57.902Z,25.81
2023-08-11T12:24:00.944Z,25.92
2023-08-11T12:25:04.936Z,25.90
2023-08-11T12:26:09.174Z,25.89
2023-08-11T12:27:12.641Z,25.90
2023-08-11T12:28:15.592Z,25.92
2023-08-11T12:29:18.589Z,25.97
2023-08-11T12:30:21.748Z,26.03
2023-08-11T12:31:24.773Z,26.04
2023-08-11T12:32:27.666Z,26.07
2023-08-11T12:33:31.265Z,26.10
2023-08-11T12:34:34.600Z,26.16
2023-08-11T12:35:38.023Z,26.19
2023-08-11T12:36:41.186Z,26.18
2023-08-11T12:37:44.048Z,26.19
2023-08-11T12:38:49.139Z,26.32
2023-08-11T12:39:52.549Z,26.33
2023-08-11T12:40:55.475Z,26.19
2023-08-11T12:41:58.406Z,26.06
2023-08-11T12:43:01.964Z,26.12
2023-08-11T12:44:05.250Z,26.09
2023-08-11T12:45:08.711Z,26.14
2023-08-11T12:46:11.903Z,26.09
2023-08-11T12:47:14.899Z,26.11
2023-08-11T12:48:17.928Z,26.15
2023-08-11T12:49:21.090Z,26.01
2023-08-11T12:50:26.151Z,25.94
2023-08-11T12:51:29.169Z,25.79
2023-08-11T12:52:32.119Z,25.86
2023-08-11T12:53:35.787Z,25.83
2023-08-11T12:54:38.865Z,25.91
2023-08-11T12:55:42.118Z,25.88
2023-08-11T12:56:46.589Z,25.87
2023-08-11T12:57:49.702Z,25.91
2023-08-11T12:58:53.459Z,25.96
2023-08-11T12:59:56.708Z,25.97
2023-08-11T13:01:00.617Z,25.97
2023-08-11T13:02:03.675Z,25.98
2023-08-11T13:03:06.807Z,25.99
2023-08-11T13:04:09.880Z,26.06
2023-08-11T13:05:12.881Z,26.01
2023-08-11T13:06:16.075Z,26.06
2023-08-11T13:07:19.326Z,26.04
2023-08-11T13:08:22.621Z,25.99
2023-08-11T13:09:25.686Z,26.01
2023-08-11T13:10:28.899Z,26.03
2023-08-11T13:11:32.113Z,26.01
2023-08-11T13:12:35.571Z,26.05
2023-08-11T13:13:38.552Z,26.06
2023-08-11T13:14:42.587Z,25.96
2023-08-11T13:15:46.401Z,25.91
2023-08-11T13:16:49.625Z,25.90
2023-08-11T13:17:52.671Z,26.00
2023-08-11T13:18:55.738Z,25.93
2023-08-11T13:19:59.321Z,25.94
2023-08-11T13:21:02.597Z,25.91
2023-08-11T13:22:09.695Z,25.89
2023-08-11T13:23:13.004Z,25.85
2023-08-11T13:24:17.795Z,25.85
2023-08-11T13:25:23.298Z,25.87
2023-08-11T13:26:26.516Z,25.80
2023-08-11T13:27:29.555Z,25.87
2023-08-11T13:28:32.688Z,25.90
2023-08-11T13:29:35.877Z,25.80
2023-08-11T13:30:41.602Z,25.79
2023-08-11T13:31:46.340Z,25.81
2023-08-11T13:32:49.361Z,25.74
2023-08-11T13:33:52.579Z,25.72
2023-08-11T13:34:55.521Z,25.72
2023-08-11T13:35:58.680Z,25.74
2023-08-11T13:37:01.832Z,25.74
2023-08-11T13:38:05.002Z,25.79
2023-08-11T13:39:08.128Z,25.84
2023-08-11T13:40:11.559Z,25.99
2023-08-11T13:41:14.587Z,26.08
2023-08-11T13:42:18.146Z,25.96
2023-08-11T13:43:23.677Z,25.82
2023-08-11T13:44:26.722Z,25.66
2023-08-11T13:45:29.928Z,25.66